Time;durP1;ratioP1;P1;durP2;ratioP2;P2;SDS_P1;SDS_P2;PMS_P1;PMS_P2;Temp;Humidity;BMP_temperature;BMP_pressure;BME280_temperature;BME280_humidity;BME280_pressure;Samples;Min_cycle;Max_cycle;Signal;HPM_P1;HPM_P2
2022/06/05 00:00:30;;;;;;;4.70;1.98;;;12.40;99.90;;;;;;5038406;28;20090;-70
2022/06/05 00:03:05;;;;;;;8.18;3.10;;;12.40;99.90;;;;;;5062377;28;20032;-70
2022/06/05 00:05:44;;;;;;;4.90;2.40;;;12.30;99.90;;;;;;5074892;28;20406;-70
2022/06/05 00:08:16;;;;;;;3.42;2.13;;;12.30;99.90;;;;;;5059308;28;20033;-70
2022/06/05 00:10:58;;;;;;;4.75;2.15;;;12.30;99.90;;;;;;5055786;28;20098;-70
2022/06/05 00:13:37;;;;;;;8.18;2.40;;;12.30;99.90;;;;;;5056942;28;20040;-70
2022/06/05 00:16:04;;;;;;;4.72;2.40;;;12.20;99.90;;;;;;5059849;28;20552;-70
2022/06/05 00:18:35;;;;;;;3.88;2.30;;;12.20;99.90;;;;;;5060611;28;20101;-70
2022/06/05 00:21:00;;;;;;;3.25;2.00;;;12.20;99.90;;;;;;5061508;28;20045;-69
2022/06/05 00:23:26;;;;;;;5.57;2.58;;;12.20;99.90;;;;;;5058813;28;20397;-70
2022/06/05 00:26:14;;;;;;;4.10;2.60;;;12.20;99.90;;;;;;5036465;28;20060;-70
2022/06/05 00:29:19;;;;;;;4.78;3.00;;;12.20;99.90;;;;;;5039715;28;20036;-70
2022/06/05 00:32:06;;;;;;;5.03;2.42;;;12.20;99.90;;;;;;5061431;28;20082;-70
2022/06/05 00:34:32;;;;;;;5.57;2.25;;;12.20;99.90;;;;;;5060917;28;20079;-69
2022/06/05 00:37:19;;;;;;;8.38;2.50;;;12.10;99.90;;;;;;5058770;28;20109;-70
2022/06/05 00:39:51;;;;;;;4.53;2.28;;;12.10;99.90;;;;;;5062817;28;20089;-70
2022/06/05 00:42:21;;;;;;;8.18;2.95;;;12.10;99.90;;;;;;5048349;28;22028;-70
2022/06/05 00:44:51;;;;;;;5.50;2.40;;;12.10;99.90;;;;;;5080048;28;20142;-70
2022/06/05 00:47:20;;;;;;;4.70;2.17;;;12.10;99.90;;;;;;5064003;28;20028;-70
2022/06/05 00:49:54;;;;;;;3.72;2.08;;;12.00;99.90;;;;;;5053140;28;20048;-70
2022/06/05 00:52:21;;;;;;;5.32;2.20;;;12.00;99.90;;;;;;5062197;28;20071;-70
2022/06/05 00:54:47;;;;;;;4.80;2.25;;;12.00;99.90;;;;;;5046603;28;20058;-70
2022/06/05 00:57:14;;;;;;;4.60;2.28;;;12.00;99.90;;;;;;5055933;28;20036;-70
2022/06/05 00:59:43;;;;;;;4.70;2.55;;;12.00;99.90;;;;;;5080324;28;20040;-70
2022/06/05 01:02:10;;;;;;;7.25;2.20;;;12.00;99.90;;;;;;5060787;28;20702;-70
2022/06/05 01:04:40;;;;;;;6.75;2.33;;;12.00;99.90;;;;;;5060329;28;20043;-70
2022/06/05 01:07:06;;;;;;;4.40;2.17;;;12.00;99.90;;;;;;5056693;28;20036;-70
2022/06/05 01:09:32;;;;;;;5.40;2.10;;;12.00;99.90;;;;;;5062785;28;20047;-69
2022/06/05 01:12:16;;;;;;;7.28;2.80;;;12.00;99.90;;;;;;5048381;28;20405;-70
2022/06/05 01:15:16;;;;;;;5.43;2.80;;;12.00;99.90;;;;;;5061047;28;20036;-70
2022/06/05 01:18:06;;;;;;;4.93;2.17;;;12.00;99.90;;;;;;5061734;28;20520;-70
2022/06/05 01:20:56;;;;;;;4.88;2.58;;;12.00;99.90;;;;;;5060597;28;20132;-70
2022/06/05 01:23:44;;;;;;;7.47;2.58;;;12.00;99.90;;;;;;5045082;28;20048;-70
2022/06/05 01:26:14;;;;;;;5.57;3.03;;;12.00;99.90;;;;;;5050247;28;21437;-70
2022/06/05 01:28:59;;;;;;;5.35;2.45;;;12.00;99.90;;;;;;5063954;28;20054;-70
2022/06/05 01:31:37;;;;;;;5.63;2.17;;;11.90;99.90;;;;;;5061000;28;20050;-70
2022/06/05 01:34:12;;;;;;;4.57;2.63;;;11.90;99.90;;;;;;5046746;28;20071;-70
2022/06/05 01:37:05;;;;;;;6.15;2.03;;;11.90;99.90;;;;;;5079369;28;20047;-70
2022/06/05 01:39:39;;;;;;;4.10;2.03;;;11.90;99.90;;;;;;5076652;28;20039;-70
2022/06/05 01:42:10;;;;;;;4.85;2.97;;;11.90;99.90;;;;;;5058812;28;20115;-70
2022/06/05 01:44:45;;;;;;;6.85;2.67;;;11.90;99.90;;;;;;5061942;28;20044;-70
2022/06/05 01:47:24;;;;;;;4.28;2.25;;;11.90;99.90;;;;;;5048263;28;20085;-70
2022/06/05 01:49:58;;;;;;;9.65;2.72;;;11.90;99.90;;;;;;5060753;28;20089;-70
2022/06/05 01:52:37;;;;;;;4.50;2.22;;;11.90;99.90;;;;;;5058359;28;20594;-70
2022/06/05 01:55:08;;;;;;;4.60;2.65;;;11.90;99.90;;;;;;5059122;28;20085;-70
2022/06/05 01:57:34;;;;;;;5.63;2.20;;;11.90;99.90;;;;;;5060349;28;20441;-69
2022/06/05 02:00:09;;;;;;;5.30;2.40;;;11.90;99.90;;;;;;5057285;28;20044;-70
2022/06/05 02:02:52;;;;;;;4.25;2.05;;;11.90;99.90;;;;;;5047778;28;20085;-70
2022/06/05 02:05:23;;;;;;;4.70;2.10;;;11.90;99.90;;;;;;5077913;28;20055;-70
2022/06/05 02:07:55;;;;;;;6.28;2.58;;;11.90;99.90;;;;;;5076245;28;20448;-70
2022/06/05 02:10:26;;;;;;;5.35;2.75;;;11.90;99.90;;;;;;5053786;28;20405;-70
2022/06/05 02:12:54;;;;;;;8.93;2.80;;;11.90;99.90;;;;;;5058518;28;20040;-70
2022/06/05 02:15:21;;;;;;;5.13;2.53;;;11.80;99.90;;;;;;5057579;28;20147;-70
2022/06/05 02:17:47;;;;;;;5.38;2.65;;;11.80;99.90;;;;;;5060671;28;20063;-70
2022/06/05 02:20:12;;;;;;;4.80;2.50;;;11.80;99.90;;;;;;5061733;28;20036;-70
2022/06/05 02:22:50;;;;;;;4.88;2.13;;;11.80;99.90;;;;;;5042655;28;20836;-70
2022/06/05 02:25:18;;;;;;;8.13;2.30;;;11.80;99.90;;;;;;5058175;28;20060;-70
2022/06/05 02:27:44;;;;;;;5.13;2.70;;;11.80;99.90;;;;;;5079849;28;20047;-70
2022/06/05 02:30:13;;;;;;;4.20;2.22;;;11.80;99.90;;;;;;5059912;28;20036;-70
2022/06/05 02:33:29;;;;;;;5.47;2.30;;;11.80;99.90;;;;;;5044062;28;20095;-70
2022/06/05 02:36:08;;;;;;;6.13;2.97;;;11.80;99.90;;;;;;5047954;28;20044;-70
2022/06/05 02:38:57;;;;;;;7.22;2.35;;;11.80;99.90;;;;;;5060172;28;20032;-70
2022/06/05 02:41:48;;;;;;;5.18;3.13;;;11.80;99.90;;;;;;5071167;28;20053;-70
2022/06/05 02:44:29;;;;;;;5.95;2.38;;;11.80;99.90;;;;;;5077650;28;20079;-70
2022/06/05 02:47:19;;;;;;;5.32;2.28;;;11.80;99.90;;;;;;5044275;28;20101;-70
2022/06/05 02:49:59;;;;;;;5.47;2.75;;;11.80;99.90;;;;;;5062331;28;20040;-70
2022/06/05 02:52:25;;;;;;;5.20;2.65;;;11.80;99.90;;;;;;5078066;28;20067;-70
2022/06/05 02:55:07;;;;;;;5.38;2.50;;;11.80;99.90;;;;;;5058920;28;20064;-70
2022/06/05 02:57:33;;;;;;;5.40;2.63;;;11.80;99.90;;;;;;5046445;28;20031;-70
2022/06/05 02:59:59;;;;;;;6.07;2.45;;;11.70;99.90;;;;;;5059099;28;20127;-70
2022/06/05 03:05:09;;;;;;;6.15;2.72;;;11.70;99.90;;;;;;5062574;28;20044;-70
2022/06/05 03:07:35;;;;;;;6.93;3.08;;;11.70;99.90;;;;;;5083924;28;20048;-70
2022/06/05 03:10:01;;;;;;;8.30;2.92;;;11.70;99.90;;;;;;5049208;28;20043;-70
2022/06/05 03:12:27;;;;;;;5.28;2.58;;;11.70;99.90;;;;;;5062610;28;20122;-70
2022/06/05 03:14:56;;;;;;;9.15;3.10;;;11.70;99.90;;;;;;5063526;28;20424;-70
2022/06/05 03:17:23;;;;;;;6.63;3.35;;;11.70;99.90;;;;;;5065782;28;20397;-70
2022/06/05 03:19:48;;;;;;;7.18;2.83;;;11.80;99.90;;;;;;5060217;28;20040;-70
2022/06/05 03:22:14;;;;;;;6.75;2.92;;;11.80;99.90;;;;;;5048987;28;20044;-70
2022/06/05 03:24:40;;;;;;;6.57;2.88;;;11.70;99.90;;;;;;5061407;28;20032;-70
2022/06/05 03:27:06;;;;;;;9.30;3.05;;;11.70;99.90;;;;;;5049154;28;20123;-70
2022/06/05 03:29:31;;;;;;;7.05;3.30;;;11.80;99.90;;;;;;5064104;28;20036;-70
2022/06/05 03:31:57;;;;;;;5.13;2.28;;;11.80;99.90;;;;;;5064029;28;20047;-70
2022/06/05 03:34:23;;;;;;;5.63;2.53;;;11.80;99.90;;;;;;5063895;28;20052;-70
2022/06/05 03:36:49;;;;;;;5.03;2.63;;;11.80;99.90;;;;;;5061269;28;20044;-70
2022/06/05 03:39:14;;;;;;;7.45;3.10;;;11.70;99.90;;;;;;5079527;28;20032;-70
2022/06/05 03:41:40;;;;;;;10.23;3.28;;;11.80;99.90;;;;;;5042708;28;20086;-70
2022/06/05 03:44:06;;;;;;;5.72;2.33;;;11.80;99.90;;;;;;5058473;28;20486;-70
2022/06/05 03:46:35;;;;;;;4.30;2.58;;;11.80;99.90;;;;;;5055575;28;20050;-70
2022/06/05 03:49:01;;;;;;;6.43;3.13;;;11.80;99.90;;;;;;5045180;28;20028;-70
2022/06/05 03:51:27;;;;;;;8.57;2.70;;;11.80;99.90;;;;;;5046900;28;20044;-70
2022/06/05 03:53:52;;;;;;;6.90;3.50;;;11.80;99.90;;;;;;5049910;28;20071;-70
2022/06/05 03:56:20;;;;;;;9.82;2.72;;;11.80;99.90;;;;;;5062548;28;20032;-70
2022/06/05 03:58:46;;;;;;;6.03;2.58;;;11.80;99.90;;;;;;5063322;28;20494;-70
2022/06/05 04:01:14;;;;;;;6.72;3.35;;;11.80;99.90;;;;;;5062251;28;20047;-70
2022/06/05 04:03:40;;;;;;;8.43;3.45;;;11.80;99.90;;;;;;5064770;28;20041;-70
2022/06/05 04:06:10;;;;;;;6.93;3.30;;;11.80;99.90;;;;;;5063225;28;20024;-70
2022/06/05 04:08:37;;;;;;;6.82;2.88;;;11.80;99.90;;;;;;5059367;28;20123;-70
2022/06/05 04:11:11;;;;;;;7.03;3.17;;;11.80;99.90;;;;;;5061859;28;20044;-70
2022/06/05 04:13:37;;;;;;;8.20;3.88;;;11.90;99.90;;;;;;5061817;28;20043;-70
2022/06/05 04:16:12;;;;;;;5.72;3.17;;;11.90;99.90;;;;;;5045992;28;20051;-70
2022/06/05 04:18:39;;;;;;;6.95;3.03;;;11.90;99.90;;;;;;5060441;28;20090;-70
2022/06/05 04:21:09;;;;;;;7.38;3.00;;;12.00;99.90;;;;;;5049005;28;20057;-70
2022/06/05 04:23:35;;;;;;;7.22;2.88;;;12.00;99.90;;;;;;5063653;28;20040;-70
2022/06/05 04:26:01;;;;;;;6.75;3.25;;;12.00;99.90;;;;;;5061644;28;20043;-70
2022/06/05 04:28:27;;;;;;;6.90;3.35;;;12.00;99.90;;;;;;5059278;28;20047;-70
2022/06/05 04:30:53;;;;;;;7.15;3.58;;;12.00;99.90;;;;;;5058519;28;20407;-70
2022/06/05 04:33:19;;;;;;;9.57;3.92;;;12.00;99.90;;;;;;5061473;28;20143;-70
2022/06/05 04:35:44;;;;;;;5.50;3.05;;;12.10;99.90;;;;;;5061083;28;20374;-70
2022/06/05 04:38:11;;;;;;;11.13;3.70;;;12.10;99.90;;;;;;5059464;28;20035;-70
2022/06/05 04:40:36;;;;;;;8.23;3.35;;;12.10;99.90;;;;;;5046572;28;20047;-70
2022/06/05 04:43:02;;;;;;;7.03;3.03;;;12.10;99.90;;;;;;5076658;28;20044;-70
2022/06/05 04:45:28;;;;;;;8.05;3.63;;;12.20;99.90;;;;;;5055997;28;20047;-70
2022/06/05 04:47:53;;;;;;;6.88;3.42;;;12.30;99.90;;;;;;5062928;28;20028;-70
2022/06/05 04:50:19;;;;;;;8.63;3.70;;;12.40;99.90;;;;;;5064480;28;20096;-70
2022/06/05 04:52:44;;;;;;;6.45;2.78;;;12.40;99.90;;;;;;5059183;28;20599;-70
2022/06/05 04:55:11;;;;;;;5.97;2.88;;;12.50;99.90;;;;;;5047605;28;20051;-70
2022/06/05 04:57:37;;;;;;;6.88;3.30;;;12.50;99.90;;;;;;5081495;28;20036;-70
2022/06/05 05:00:04;;;;;;;7.32;3.45;;;12.60;99.90;;;;;;5043221;28;20036;-70
2022/06/05 05:02:30;;;;;;;8.35;3.15;;;12.60;99.90;;;;;;5064044;28;20040;-70
2022/06/05 05:04:57;;;;;;;6.72;3.00;;;12.70;99.90;;;;;;5060503;28;20036;-70
2022/06/05 05:07:22;;;;;;;7.25;2.72;;;12.70;99.90;;;;;;5059795;28;20087;-70
2022/06/05 05:09:48;;;;;;;6.00;3.38;;;12.70;99.90;;;;;;5060268;28;20040;-70
2022/06/05 05:12:15;;;;;;;6.70;3.28;;;12.70;99.90;;;;;;5063698;28;20063;-70
2022/06/05 05:14:41;;;;;;;9.93;3.45;;;12.80;99.90;;;;;;5059519;28;20051;-70
2022/06/05 05:17:07;;;;;;;7.75;2.83;;;12.80;99.90;;;;;;5064509;28;20040;-70
2022/06/05 05:19:33;;;;;;;6.40;2.72;;;12.90;99.90;;;;;;5046776;28;20039;-70
2022/06/05 05:21:59;;;;;;;7.00;3.38;;;12.90;99.90;;;;;;5059963;28;20642;-70
2022/06/05 05:24:25;;;;;;;5.88;2.75;;;12.90;99.90;;;;;;5062790;28;20055;-70
2022/06/05 05:26:51;;;;;;;6.25;2.38;;;13.00;99.90;;;;;;5059011;28;21795;-70
2022/06/05 05:29:16;;;;;;;7.07;2.72;;;13.00;99.90;;;;;;5060519;28;20474;-70
2022/06/05 05:31:45;;;;;;;10.73;3.33;;;13.00;99.90;;;;;;5080896;28;20126;-69
2022/06/05 05:34:13;;;;;;;6.95;3.08;;;13.00;99.90;;;;;;5063267;28;20098;-70
2022/06/05 05:36:39;;;;;;;6.35;3.42;;;13.10;99.90;;;;;;5079822;28;20044;-70
2022/06/05 05:42:08;;;;;;;8.40;3.83;;;13.10;99.90;;;;;;5059706;28;20078;-69
2022/06/05 05:44:36;;;;;;;6.43;2.72;;;13.20;99.90;;;;;;5058774;28;20033;-69
2022/06/05 05:47:06;;;;;;;8.13;3.38;;;13.20;99.90;;;;;;5059638;28;20059;-70
2022/06/05 05:49:33;;;;;;;6.18;2.58;;;13.30;99.90;;;;;;5074676;28;20048;-69
2022/06/05 05:51:58;;;;;;;5.82;2.95;;;13.30;99.90;;;;;;5061806;28;20036;-70
2022/06/05 05:54:24;;;;;;;7.35;3.30;;;13.40;99.90;;;;;;5062399;28;20062;-70
2022/06/05 05:56:51;;;;;;;7.38;3.70;;;13.40;99.90;;;;;;5060888;28;20035;-69
2022/06/05 05:59:18;;;;;;;8.07;3.08;;;13.40;99.90;;;;;;5055405;28;20051;-69
2022/06/05 06:01:45;;;;;;;5.65;2.47;;;13.50;99.90;;;;;;5063957;28;20096;-70
2022/06/05 06:04:11;;;;;;;6.45;3.20;;;13.50;99.90;;;;;;5063228;28;20071;-69
2022/06/05 06:06:41;;;;;;;8.13;3.17;;;13.60;99.90;;;;;;5062579;28;20036;-70
2022/06/05 06:09:07;;;;;;;5.18;2.53;;;13.60;99.90;;;;;;5044700;28;20043;-69
2022/06/05 06:11:33;;;;;;;5.13;2.55;;;13.70;99.90;;;;;;5061079;28;20040;-70
2022/06/05 06:13:58;;;;;;;6.85;3.30;;;13.70;99.90;;;;;;5054496;28;20076;-69
2022/06/05 06:16:26;;;;;;;6.57;3.10;;;13.80;99.90;;;;;;5061498;28;20126;-70
2022/06/05 06:18:53;;;;;;;7.45;3.35;;;13.80;99.90;;;;;;5058163;28;20047;-70
2022/06/05 06:21:19;;;;;;;7.85;3.28;;;13.90;99.90;;;;;;5056630;28;20058;-70
2022/06/05 06:23:45;;;;;;;6.82;3.10;;;13.90;99.90;;;;;;5063337;28;20044;-70
2022/06/05 06:26:10;;;;;;;10.13;3.00;;;14.00;99.90;;;;;;5058779;28;20028;-69
2022/06/05 06:28:36;;;;;;;5.63;2.58;;;14.00;99.90;;;;;;5058150;28;20093;-69
2022/06/05 06:31:07;;;;;;;5.72;2.78;;;14.20;99.90;;;;;;5060375;28;20044;-69
2022/06/05 06:33:33;;;;;;;5.38;2.97;;;14.30;99.90;;;;;;5061895;28;20065;-70
2022/06/05 06:36:04;;;;;;;5.43;2.75;;;14.50;99.90;;;;;;5055231;28;20055;-70
2022/06/05 06:38:30;;;;;;;5.85;3.28;;;14.70;99.90;;;;;;5060560;28;20501;-70
2022/06/05 06:41:07;;;;;;;5.50;3.15;;;14.90;99.90;;;;;;5070889;28;20051;-70
2022/06/05 06:43:34;;;;;;;7.43;2.90;;;15.00;99.90;;;;;;5037021;28;20040;-70
2022/06/05 06:46:01;;;;;;;4.13;2.47;;;15.20;99.90;;;;;;5054029;28;20039;-70
2022/06/05 06:48:27;;;;;;;6.35;2.83;;;15.40;99.90;;;;;;5052959;28;20107;-70
2022/06/05 06:50:55;;;;;;;7.07;3.50;;;15.50;99.90;;;;;;5044454;28;20044;-70
2022/06/05 06:53:21;;;;;;;3.90;2.20;;;15.40;99.90;;;;;;5048005;28;20061;-70
2022/06/05 06:55:47;;;;;;;7.22;3.10;;;15.50;99.90;;;;;;5050921;28;20646;-71
2022/06/05 06:58:13;;;;;;;5.60;2.85;;;15.60;99.90;;;;;;5046615;28;20101;-70
2022/06/05 07:00:39;;;;;;;6.20;2.90;;;15.60;99.90;;;;;;5056461;28;20040;-70
2022/06/05 07:03:04;;;;;;;7.18;3.15;;;15.60;99.90;;;;;;5052121;28;20047;-70
2022/06/05 07:05:31;;;;;;;4.95;2.47;;;15.70;99.90;;;;;;5057980;28;20094;-71
2022/06/05 07:07:57;;;;;;;5.90;3.05;;;15.80;99.90;;;;;;5053715;28;20083;-71
2022/06/05 07:10:23;;;;;;;5.05;2.90;;;15.80;99.90;;;;;;5060670;28;20064;-71
2022/06/05 07:12:49;;;;;;;6.03;2.80;;;15.90;99.90;;;;;;5060654;28;20036;-70
2022/06/05 07:15:15;;;;;;;6.15;2.90;;;15.90;99.90;;;;;;5062470;28;20067;-70
2022/06/05 07:17:40;;;;;;;6.40;2.95;;;16.00;99.90;;;;;;5058795;28;20065;-70
2022/06/05 07:20:07;;;;;;;6.55;2.85;;;16.00;99.90;;;;;;5059695;28;20086;-70
2022/06/05 07:22:33;;;;;;;5.53;3.03;;;16.00;99.90;;;;;;5062065;28;20558;-71
2022/06/05 07:24:59;;;;;;;7.00;3.10;;;16.10;99.90;;;;;;5063037;28;20039;-70
2022/06/05 07:27:25;;;;;;;4.38;2.65;;;16.10;99.90;;;;;;5062581;28;20507;-70
2022/06/05 07:29:51;;;;;;;7.68;2.80;;;16.10;99.90;;;;;;5056592;28;20040;-70
2022/06/05 07:32:18;;;;;;;5.28;2.67;;;16.20;99.90;;;;;;5046931;28;20046;-70
2022/06/05 07:34:44;;;;;;;6.78;2.88;;;16.20;99.90;;;;;;5064374;28;20043;-70
2022/06/05 07:37:10;;;;;;;5.60;3.00;;;16.20;99.90;;;;;;5077150;28;20398;-70
2022/06/05 07:39:36;;;;;;;6.47;2.75;;;16.30;99.90;;;;;;5072772;28;20036;-70
2022/06/05 07:42:02;;;;;;;5.47;2.70;;;16.30;99.90;;;;;;5061693;28;20545;-70
2022/06/05 07:44:27;;;;;;;4.88;2.72;;;16.40;99.90;;;;;;5058613;28;20564;-70
2022/06/05 07:46:54;;;;;;;4.80;2.67;;;16.40;99.90;;;;;;5056676;28;20124;-70
2022/06/05 07:49:20;;;;;;;6.38;2.88;;;16.50;99.90;;;;;;5044136;28;20137;-70
2022/06/05 07:54:31;;;;;;;5.20;2.70;;;16.60;99.90;;;;;;5058284;28;20060;-70
2022/06/05 07:57:18;;;;;;;3.25;2.13;;;16.70;99.90;;;;;;5063878;28;20469;-70
2022/06/05 07:59:46;;;;;;;5.32;2.53;;;16.70;99.90;;;;;;5063605;28;20097;-70
2022/06/05 08:02:21;;;;;;;4.75;2.45;;;16.80;99.90;;;;;;5047352;28;20032;-70
2022/06/05 08:04:48;;;;;;;5.60;2.47;;;16.80;99.90;;;;;;5064201;28;20048;-70
2022/06/05 08:07:17;;;;;;;5.88;2.58;;;16.80;99.90;;;;;;5060315;28;20036;-70
2022/06/05 08:09:43;;;;;;;5.97;2.58;;;16.90;99.90;;;;;;5057745;28;20036;-70
2022/06/05 08:12:11;;;;;;;3.67;2.05;;;17.00;99.90;;;;;;5061817;28;20051;-70
2022/06/05 08:14:38;;;;;;;5.95;3.20;;;17.10;99.90;;;;;;5058759;28;20120;-70
2022/06/05 08:17:06;;;;;;;5.18;2.40;;;17.10;99.90;;;;;;5074277;28;20390;-70
2022/06/05 08:19:32;;;;;;;4.28;2.53;;;17.20;99.90;;;;;;5053118;28;20069;-71
2022/06/05 08:21:59;;;;;;;4.72;2.50;;;17.30;99.90;;;;;;5077032;28;20497;-72
2022/06/05 08:24:25;;;;;;;4.32;2.50;;;17.30;99.90;;;;;;5052365;28;20062;-70
2022/06/05 08:26:51;;;;;;;4.45;2.55;;;17.30;99.90;;;;;;5037653;28;20035;-70
2022/06/05 08:29:19;;;;;;;6.30;2.75;;;17.40;99.90;;;;;;5062122;28;20375;-71
2022/06/05 08:31:44;;;;;;;4.05;2.15;;;17.50;99.90;;;;;;5034957;28;20032;-70
2022/06/05 08:34:12;;;;;;;5.72;2.83;;;17.50;99.90;;;;;;5055122;28;20083;-70
2022/06/05 08:36:38;;;;;;;5.15;2.65;;;17.60;99.90;;;;;;5074204;28;20040;-70
2022/06/05 08:42:15;;;;;;;6.72;2.78;;;17.70;99.90;;;;;;5020416;28;20053;-70
2022/06/05 08:45:09;;;;;;;3.65;2.13;;;17.70;99.90;;;;;;5053465;28;20044;-70
2022/06/05 08:47:44;;;;;;;6.03;2.97;;;17.80;99.90;;;;;;5074206;28;20170;-70
2022/06/05 08:50:28;;;;;;;;;;;17.80;99.90;;;;;;5060772;28;20048;-70
2022/06/05 08:52:59;;;;;;;5.25;2.63;;;17.80;99.90;;;;;;5054368;28;19916;-71
2022/06/05 08:55:39;;;;;;;4.68;2.17;;;17.80;99.90;;;;;;5060072;28;20036;-70
2022/06/05 08:58:16;;;;;;;5.10;2.80;;;17.90;99.90;;;;;;5053783;28;20167;-70
2022/06/05 09:00:51;;;;;;;5.00;2.50;;;18.00;99.90;;;;;;5032464;28;20718;-70
2022/06/05 09:03:25;;;;;;;5.57;2.63;;;18.00;99.90;;;;;;5061422;28;20478;-70
2022/06/05 09:06:09;;;;;;;5.63;2.33;;;18.10;99.90;;;;;;5064063;28;20082;-70
2022/06/05 09:08:39;;;;;;;4.18;2.17;;;18.20;99.90;;;;;;5064992;28;22024;-70
2022/06/05 09:11:11;;;;;;;5.40;2.70;;;18.20;99.90;;;;;;5042460;28;20054;-70
2022/06/05 09:13:59;;;;;;;3.75;2.60;;;18.40;99.90;;;;;;5070000;28;20040;-73
2022/06/05 09:16:28;;;;;;;3.58;2.20;;;18.50;99.90;;;;;;5056524;28;20040;-70
2022/06/05 09:18:55;;;;;;;5.03;2.47;;;18.60;99.90;;;;;;5051963;28;20154;-70
2022/06/05 09:21:35;;;;;;;4.45;2.53;;;18.60;99.90;;;;;;5038929;28;20047;-70
2022/06/05 09:24:23;;;;;;;4.38;2.88;;;18.70;99.90;;;;;;5057226;28;20086;-70
2022/06/05 09:27:10;;;;;;;5.30;2.30;;;18.80;99.90;;;;;;5052189;28;20101;-70
2022/06/05 09:29:48;;;;;;;4.13;2.35;;;18.90;99.90;;;;;;5054800;28;20096;-70
2022/06/05 09:32:56;;;;;;;4.72;2.20;;;18.90;99.90;;;;;;5051212;28;20512;-70
2022/06/05 09:35:21;;;;;;;3.55;2.20;;;18.90;99.90;;;;;;5041913;28;20053;-70
2022/06/05 09:37:57;;;;;;;4.38;2.30;;;19.00;99.90;;;;;;5058195;28;20454;-74
2022/06/05 09:40:34;;;;;;;4.47;2.72;;;19.10;99.90;;;;;;5071590;28;20482;-70
2022/06/05 09:43:21;;;;;;;4.72;2.85;;;19.10;99.90;;;;;;5050412;28;20068;-70
2022/06/05 09:46:10;;;;;;;6.50;2.97;;;19.20;99.90;;;;;;5047988;28;20032;-70
2022/06/05 09:48:50;;;;;;;4.43;2.47;;;19.30;99.90;;;;;;5045234;28;20119;-70
2022/06/05 09:51:18;;;;;;;4.18;2.60;;;19.30;99.90;;;;;;5055388;28;20036;-70
2022/06/05 09:54:31;;;;;;;4.72;2.25;;;19.40;99.90;;;;;;5056085;28;20239;-70
2022/06/05 10:00:00;;;;;;;4.22;2.50;;;19.50;99.90;;;;;;5059883;28;20051;-70
2022/06/05 10:02:27;;;;;;;4.80;2.55;;;19.60;99.90;;;;;;5051020;28;20085;-71
2022/06/05 10:04:53;;;;;;;4.20;2.47;;;19.60;99.90;;;;;;5039039;28;20382;-70
2022/06/05 10:07:29;;;;;;;5.05;2.88;;;19.60;99.90;;;;;;5053855;28;20036;-71
2022/06/05 10:09:55;;;;;;;4.90;3.00;;;19.70;99.90;;;;;;5072523;28;20529;-70
2022/06/05 10:12:50;;;;;;;3.95;2.17;;;19.80;99.90;;;;;;5055408;28;20050;-71
2022/06/05 10:15:29;;;;;;;3.92;2.25;;;19.90;99.90;;;;;;5040352;28;20608;-71
2022/06/05 10:18:01;;;;;;;3.83;2.38;;;19.90;99.90;;;;;;5055368;28;20047;-71
2022/06/05 10:20:46;;;;;;;5.60;2.58;;;19.90;99.90;;;;;;5050311;28;20041;-70
2022/06/05 10:23:51;;;;;;;5.45;2.83;;;20.00;99.90;;;;;;5052735;28;20541;-71
2022/06/05 10:26:30;;;;;;;3.92;2.20;;;20.00;98.80;;;;;;5031400;28;20047;-71
2022/06/05 10:29:11;;;;;;;4.72;2.38;;;20.10;99.90;;;;;;5034065;28;20306;-70
2022/06/05 10:31:40;;;;;;;3.47;2.28;;;20.10;99.90;;;;;;5057197;28;20256;-70
2022/06/05 10:34:12;;;;;;;4.80;2.78;;;20.10;99.90;;;;;;5055045;28;20138;-70
2022/06/05 10:36:52;;;;;;;4.03;2.50;;;20.10;99.90;;;;;;5058178;28;20055;-70
2022/06/05 10:39:36;;;;;;;3.38;2.50;;;20.20;99.90;;;;;;5037579;28;20052;-71
2022/06/05 10:42:25;;;;;;;3.92;2.17;;;20.20;99.90;;;;;;5053944;28;20481;-71
2022/06/05 10:45:02;;;;;;;3.67;2.40;;;20.20;98.50;;;;;;5071716;28;20043;-70
2022/06/05 10:47:39;;;;;;;3.25;2.15;;;20.20;99.30;;;;;;5070110;28;20070;-70
2022/06/05 10:50:17;;;;;;;3.95;2.45;;;20.30;99.90;;;;;;5054073;28;20043;-71
2022/06/05 10:53:04;;;;;;;3.80;2.58;;;20.40;99.90;;;;;;5058176;28;20494;-70
2022/06/05 10:55:55;;;;;;;4.40;2.25;;;20.40;99.90;;;;;;5055598;28;20043;-71
2022/06/05 10:58:27;;;;;;;3.75;2.50;;;20.50;99.90;;;;;;5039922;28;20778;-71
2022/06/05 11:01:17;;;;;;;3.63;2.35;;;20.60;99.90;;;;;;5041663;28;20047;-71
2022/06/05 11:03:55;;;;;;;3.72;2.55;;;20.60;99.70;;;;;;5056091;28;20765;-71
2022/06/05 11:06:50;;;;;;;4.13;2.45;;;20.70;99.50;;;;;;5036084;28;21158;-71
2022/06/05 11:09:37;;;;;;;3.30;2.30;;;20.70;99.00;;;;;;5050180;28;20039;-71
2022/06/05 11:15:24;;;;;;;3.72;2.53;;;20.90;99.80;;;;;;5063844;28;20040;-71
2022/06/05 11:18:31;;;;;;;4.32;2.90;;;20.90;97.30;;;;;;5042266;28;20064;-71
2022/06/05 11:20:59;;;;;;;3.85;2.85;;;21.00;96.70;;;;;;5059046;28;20036;-71
2022/06/05 11:23:33;;;;;;;3.92;2.65;;;21.00;99.20;;;;;;5054806;28;21047;-72
2022/06/05 11:26:22;;;;;;;3.35;2.30;;;21.00;98.10;;;;;;5057858;28;20418;-71
2022/06/05 11:29:26;;;;;;;5.50;3.47;;;21.10;98.50;;;;;;5041094;28;20386;-72
2022/06/05 11:32:18;;;;;;;4.28;2.67;;;21.00;97.50;;;;;;5059932;28;20108;-72
2022/06/05 11:34:59;;;;;;;4.38;2.70;;;21.10;98.70;;;;;;5054987;28;20047;-71
2022/06/05 11:37:43;;;;;;;4.45;2.40;;;21.10;96.90;;;;;;5035132;28;20039;-72
2022/06/05 11:40:35;;;;;;;4.22;3.00;;;21.10;94.20;;;;;;5055056;28;20062;-71
2022/06/05 11:43:26;;;;;;;3.53;2.47;;;21.10;95.60;;;;;;5074754;28;20032;-72
2022/06/05 11:45:58;;;;;;;4.45;3.08;;;21.10;96.30;;;;;;5075078;28;20040;-71
2022/06/05 11:48:39;;;;;;;3.17;2.30;;;21.10;97.30;;;;;;5057445;28;20700;-71
2022/06/05 11:51:45;;;;;;;3.75;2.70;;;21.10;95.90;;;;;;5043728;28;20991;-71
2022/06/05 11:54:17;;;;;;;4.22;2.58;;;21.20;96.40;;;;;;5002621;28;20576;-71
2022/06/05 11:57:18;;;;;;;3.65;2.58;;;21.20;97.70;;;;;;5057140;28;20055;-71
2022/06/05 11:59:54;;;;;;;4.25;2.70;;;21.20;94.40;;;;;;5069639;28;20044;-71
2022/06/05 12:02:33;;;;;;;3.45;2.33;;;21.20;95.90;;;;;;5054793;28;20034;-71
2022/06/05 12:05:13;;;;;;;4.75;3.05;;;21.20;94.10;;;;;;5057632;28;20040;-71
2022/06/05 12:07:40;;;;;;;5.97;2.55;;;21.20;95.50;;;;;;5057240;28;20085;-71
2022/06/05 12:10:29;;;;;;;4.60;3.05;;;21.20;96.70;;;;;;5052753;28;20059;-71
2022/06/05 12:13:01;;;;;;;4.32;2.75;;;21.30;96.60;;;;;;5054541;28;20044;-71
2022/06/05 12:15:49;;;;;;;4.05;2.72;;;21.30;97.10;;;;;;5037528;28;20044;-71
2022/06/05 12:18:25;;;;;;;3.88;2.65;;;21.30;95.40;;;;;;5057750;28;20379;-72
2022/06/05 12:21:12;;;;;;;3.60;2.45;;;21.30;96.00;;;;;;5035984;28;20539;-72
2022/06/05 12:23:50;;;;;;;4.53;2.25;;;21.30;95.90;;;;;;5039447;28;20044;-71
2022/06/05 12:26:41;;;;;;;3.85;2.70;;;21.30;95.60;;;;;;5059146;28;20038;-71
2022/06/05 12:29:19;;;;;;;4.13;2.70;;;21.20;96.10;;;;;;5042103;28;20124;-72
2022/06/05 12:32:05;;;;;;;4.50;2.90;;;21.20;96.50;;;;;;5056689;28;20035;-71
2022/06/05 12:34:56;;;;;;;6.38;2.97;;;21.10;95.20;;;;;;5057476;28;20056;-71
2022/06/05 12:37:39;;;;;;;4.22;3.08;;;21.20;94.10;;;;;;5060878;28;20048;-71
2022/06/05 12:40:16;;;;;;;3.97;2.70;;;21.10;94.70;;;;;;5042246;28;20394;-72
2022/06/05 12:42:50;;;;;;;3.88;2.70;;;21.10;95.60;;;;;;5040650;28;20085;-71
2022/06/05 12:45:26;;;;;;;4.90;2.92;;;21.10;96.30;;;;;;5057407;28;20027;-71
2022/06/05 12:48:11;;;;;;;3.63;2.78;;;21.20;95.80;;;;;;5072399;28;20044;-71
2022/06/05 12:51:09;;;;;;;4.63;2.75;;;21.20;95.50;;;;;;5056982;28;20494;-71
2022/06/05 12:53:45;;;;;;;3.70;2.63;;;21.20;95.50;;;;;;5057958;28;20133;-71
2022/06/05 12:56:29;;;;;;;4.82;3.03;;;21.30;96.50;;;;;;5055773;28;20032;-71
2022/06/05 12:59:17;;;;;;;4.10;2.90;;;21.20;95.50;;;;;;5055924;28;20045;-71
2022/06/05 13:01:45;;;;;;;3.20;2.47;;;21.20;95.20;;;;;;5060586;28;20159;-71
2022/06/05 13:04:25;;;;;;;3.28;2.45;;;21.30;97.00;;;;;;5056320;28;20056;-71
2022/06/05 13:07:18;;;;;;;4.13;2.38;;;21.30;96.80;;;;;;5068147;28;20036;-71
2022/06/05 13:09:52;;;;;;;4.50;2.67;;;21.40;96.20;;;;;;5039415;28;20036;-71
2022/06/05 13:12:44;;;;;;;3.40;2.50;;;21.40;96.10;;;;;;5055862;28;20047;-71
2022/06/05 13:15:34;;;;;;;3.40;2.42;;;21.40;94.00;;;;;;5053873;28;20048;-71
2022/06/05 13:18:18;;;;;;;3.70;2.45;;;21.50;93.90;;;;;;5055667;28;20048;-71
2022/06/05 13:21:14;;;;;;;5.00;2.63;;;21.60;94.80;;;;;;5056373;28;20181;-71
2022/06/05 13:23:56;;;;;;;4.05;2.70;;;21.60;94.60;;;;;;5043544;28;20044;-70
2022/06/05 13:26:53;;;;;;;4.10;2.65;;;21.70;94.00;;;;;;5063959;28;20043;-70
2022/06/05 13:29:40;;;;;;;5.45;2.05;;;21.70;93.90;;;;;;5060822;28;20055;-71
2022/06/05 13:32:12;;;;;;;3.67;2.40;;;21.80;94.30;;;;;;5054797;28;20051;-70
2022/06/05 13:34:53;;;;;;;3.22;2.20;;;21.80;95.50;;;;;;5062592;28;20133;-70
2022/06/05 13:37:26;;;;;;;3.70;2.33;;;21.80;95.10;;;;;;5038151;28;20328;-71
2022/06/05 13:40:13;;;;;;;3.58;2.58;;;21.90;95.30;;;;;;5054839;28;20047;-71